Time;durP1;ratioP1;P1;durP2;ratioP2;P2;SDS_P1;SDS_P2;PMS_P1;PMS_P2;Temp;Humidity;BMP_temperature;BMP_pressure;BME280_temperature;BME280_humidity;BME280_pressure;Samples;Min_cycle;Max_cycle;Signal;HPM_P1;HPM_P2
2022/02/06 00:00:50;;;;;;;7.80;3.10;;;7.50;99.90;;;;;;5074231;28;20223;-53
2022/02/06 00:03:17;;;;;;;6.73;2.63;;;7.60;99.90;;;;;;5072766;28;20557;-53
2022/02/06 00:05:48;;;;;;;9.07;3.17;;;7.50;99.90;;;;;;5075638;28;20673;-53
2022/02/06 00:08:15;;;;;;;4.53;2.60;;;7.50;99.90;;;;;;5065770;28;20720;-53
2022/02/06 00:10:42;;;;;;;5.43;2.70;;;7.50;99.90;;;;;;5072658;28;20317;-54
2022/02/06 00:13:09;;;;;;;3.97;2.90;;;7.40;99.90;;;;;;5071603;28;20724;-54
2022/02/06 00:15:36;;;;;;;11.30;3.03;;;7.40;99.90;;;;;;5063590;28;20591;-55
2022/02/06 00:18:03;;;;;;;9.77;2.60;;;7.40;99.90;;;;;;5064254;28;20289;-54
2022/02/06 00:20:34;;;;;;;6.97;2.40;;;7.40;99.90;;;;;;5062619;28;20198;-55
2022/02/06 00:23:06;;;;;;;5.40;2.80;;;7.30;99.90;;;;;;5053640;28;20201;-53
2022/02/06 00:28:31;;;;;;;9.93;3.07;;;7.30;99.90;;;;;;5091438;28;20287;-55
2022/02/06 00:39:09;;;;;;;6.43;2.33;;;7.30;99.90;;;;;;5042432;28;20213;-54
2022/02/06 00:41:36;;;;;;;4.50;2.20;;;7.30;99.90;;;;;;5079634;28;20713;-54
2022/02/06 00:44:05;;;;;;;7.43;2.57;;;7.30;99.90;;;;;;5062879;28;20561;-55
2022/02/06 00:46:38;;;;;;;4.47;2.40;;;7.30;99.90;;;;;;5078338;28;20224;-55
2022/02/06 00:49:24;;;;;;;11.93;3.03;;;7.30;99.90;;;;;;5082043;28;20215;-55
2022/02/06 00:51:57;;;;;;;9.27;3.00;;;7.30;99.90;;;;;;5075443;28;20209;-55
2022/02/06 00:54:24;;;;;;;9.20;2.90;;;7.30;99.90;;;;;;5081874;28;20614;-55
2022/02/06 00:56:51;;;;;;;4.47;2.73;;;7.30;99.90;;;;;;5074890;28;20665;-55
2022/02/06 00:59:17;;;;;;;8.30;3.03;;;7.30;99.90;;;;;;5081656;28;20763;-55
2022/02/06 01:01:45;;;;;;;6.47;2.53;;;7.30;99.90;;;;;;5082250;28;20206;-54
2022/02/06 01:04:13;;;;;;;6.10;2.17;;;7.30;99.90;;;;;;5078412;28;21083;-55
2022/02/06 01:06:41;;;;;;;11.70;2.83;;;7.40;99.90;;;;;;5080833;28;20627;-55
2022/02/06 01:09:09;;;;;;;12.03;2.97;;;7.40;99.90;;;;;;5066660;28;20593;-55
2022/02/06 01:11:38;;;;;;;11.53;3.37;;;7.40;99.90;;;;;;5075084;28;20606;-55
2022/02/06 01:16:53;;;;;;;7.53;2.80;;;7.40;99.90;;;;;;5081370;28;20247;-54
2022/02/06 01:19:24;;;;;;;5.37;2.40;;;7.40;99.90;;;;;;5058527;28;20673;-54
2022/02/06 01:22:03;;;;;;;9.47;2.70;;;7.40;99.90;;;;;;5077335;28;21863;-54
2022/02/06 01:25:21;;;;;;;5.20;2.43;;;7.40;99.90;;;;;;5078188;28;20207;-54
2022/02/06 01:27:22;;;;;;;7.83;2.13;;;7.50;99.90;;;;;;5071442;28;20650;-54
2022/02/06 01:30:00;;;;;;;8.33;2.37;;;7.40;99.90;;;;;;5069812;28;20226;-54
2022/02/06 01:32:39;;;;;;;7.20;3.13;;;7.40;99.90;;;;;;5082324;28;20260;-54
2022/02/06 01:35:12;;;;;;;6.57;2.23;;;7.40;99.90;;;;;;5074467;28;20222;-54
2022/02/06 01:37:56;;;;;;;3.73;2.33;;;7.40;99.90;;;;;;5077867;28;20234;-54
2022/02/06 01:40:40;;;;;;;9.97;3.00;;;7.40;99.90;;;;;;5074174;28;20297;-53
2022/02/06 01:43:14;;;;;;;4.33;2.00;;;7.40;99.90;;;;;;5079940;28;20280;-53
2022/02/06 02:07:34;;;;;;;8.47;2.80;;;7.30;99.90;;;;;;5076896;28;20615;-54
2022/02/06 02:26:06;;;;;;;7.63;2.30;;;7.30;99.90;;;;;;5077876;28;20365;-55
2022/02/06 02:31:24;;;;;;;7.83;2.47;;;7.30;99.90;;;;;;5079668;28;20562;-56
2022/02/06 02:47:49;;;;;;;9.33;2.13;;;7.20;99.90;;;;;;5041274;28;20318;-54
2022/02/06 02:50:20;;;;;;;7.83;2.40;;;7.20;99.90;;;;;;5078897;28;20199;-54
2022/02/06 02:58:46;;;;;;;5.63;2.50;;;7.10;99.90;;;;;;5084991;28;20251;-55
2022/02/06 03:01:38;;;;;;;8.47;2.40;;;7.10;99.90;;;;;;5060593;28;20558;-54
2022/02/06 03:04:03;;;;;;;7.90;2.60;;;7.10;99.90;;;;;;5084052;28;20234;-54
2022/02/06 03:06:30;;;;;;;3.37;1.80;;;7.10;99.90;;;;;;5084526;28;20218;-55
2022/02/06 03:08:58;;;;;;;5.33;2.37;;;7.10;99.90;;;;;;5083532;28;20250;-53
2022/02/06 03:11:25;;;;;;;5.63;2.10;;;7.10;99.90;;;;;;5081849;28;20206;-55
2022/02/06 03:14:07;;;;;;;3.60;1.73;;;7.10;99.90;;;;;;5067609;28;20648;-56
2022/02/06 03:16:37;;;;;;;3.97;1.87;;;7.10;99.90;;;;;;5084163;28;20507;-55
2022/02/06 03:19:11;;;;;;;10.57;2.37;;;7.10;99.90;;;;;;5083588;28;20581;-54
2022/02/06 03:21:39;;;;;;;5.97;2.10;;;7.10;99.90;;;;;;5083818;28;20620;-55
2022/02/06 03:24:18;;;;;;;3.47;2.13;;;7.10;99.90;;;;;;5085219;28;20296;-55
2022/02/06 03:26:47;;;;;;;4.70;2.07;;;7.10;99.90;;;;;;5078557;28;20209;-55
2022/02/06 03:29:15;;;;;;;6.73;2.50;;;7.10;99.90;;;;;;5078979;28;20290;-54
2022/02/06 03:31:44;;;;;;;4.47;1.97;;;7.10;99.90;;;;;;5078355;28;20206;-54
2022/02/06 03:34:11;;;;;;;3.47;2.63;;;7.10;99.90;;;;;;5080042;28;20199;-53
2022/02/06 03:36:38;;;;;;;7.40;2.07;;;7.10;99.90;;;;;;5076830;28;20206;-55
2022/02/06 03:39:06;;;;;;;11.27;2.13;;;7.10;99.90;;;;;;5076919;28;20206;-54
2022/02/06 03:41:53;;;;;;;4.63;2.27;;;7.10;99.90;;;;;;5077806;28;20226;-56
2022/02/06 03:44:34;;;;;;;3.70;2.10;;;7.10;99.90;;;;;;5078522;28;20279;-53
2022/02/06 03:47:14;;;;;;;6.00;2.57;;;7.10;99.90;;;;;;5077839;28;20276;-54
2022/02/06 03:52:15;;;;;;;2.43;1.87;;;7.10;99.90;;;;;;5076505;28;20202;-54
2022/02/06 03:54:42;;;;;;;4.93;2.10;;;7.10;99.90;;;;;;5072027;28;20198;-56
2022/02/06 03:57:08;;;;;;;3.40;1.83;;;7.10;99.90;;;;;;5075342;28;20293;-55
2022/02/06 03:59:35;;;;;;;11.07;2.43;;;7.10;99.90;;;;;;5073934;28;20206;-55
2022/02/06 04:02:05;;;;;;;4.47;2.43;;;7.10;99.90;;;;;;5063332;28;20676;-55
2022/02/06 04:04:32;;;;;;;6.77;2.80;;;7.20;99.90;;;;;;5080459;28;20198;-54
2022/02/06 04:07:05;;;;;;;3.97;2.27;;;7.20;99.90;;;;;;5082244;28;20245;-59
2022/02/06 04:09:39;;;;;;;6.53;2.30;;;7.20;99.90;;;;;;5078612;28;20223;-55
2022/02/06 04:12:06;;;;;;;6.30;2.70;;;7.20;99.90;;;;;;5079774;28;20195;-55
2022/02/06 04:14:42;;;;;;;3.13;2.00;;;7.20;99.90;;;;;;5080026;28;20373;-55
2022/02/06 04:17:21;;;;;;;3.73;2.20;;;7.20;99.90;;;;;;5082079;28;20199;-54
2022/02/06 04:19:48;;;;;;;6.03;2.97;;;7.30;99.90;;;;;;5080732;28;20229;-55
2022/02/06 04:22:14;;;;;;;5.93;2.30;;;7.30;99.90;;;;;;5080826;28;20419;-53
2022/02/06 04:24:41;;;;;;;5.27;2.33;;;7.30;99.90;;;;;;5078118;28;20195;-55
2022/02/06 04:27:09;;;;;;;4.20;2.03;;;7.40;99.90;;;;;;5077065;28;20218;-55
2022/02/06 04:29:36;;;;;;;4.83;2.10;;;7.40;99.90;;;;;;5075691;28;20303;-53
2022/02/06 04:32:04;;;;;;;2.30;1.90;;;7.50;99.90;;;;;;5077867;28;20241;-54
2022/02/06 04:34:32;;;;;;;4.07;2.40;;;7.50;99.90;;;;;;5056265;28;20302;-56
2022/02/06 04:37:10;;;;;;;3.93;2.63;;;7.60;99.90;;;;;;5076898;28;20218;-55
2022/02/06 05:15:00;;;;;;;5.73;3.40;;;7.60;99.90;;;;;;5059459;28;20607;-54
2022/02/06 05:20:52;;;;;;;5.70;3.73;;;7.60;99.90;;;;;;5043172;28;20199;-54
2022/02/06 05:24:19;;;;;;;6.63;3.10;;;7.60;99.90;;;;;;5062937;28;20230;-55
2022/02/06 05:28:52;;;;;;;6.03;3.40;;;7.60;99.90;;;;;;5058452;28;20647;-54
2022/02/06 05:31:54;;;;;;;5.20;3.30;;;7.50;99.90;;;;;;5040683;28;20202;-55
2022/02/06 05:34:21;;;;;;;4.27;3.20;;;7.60;99.90;;;;;;5056413;28;20298;-55
2022/02/06 05:36:48;;;;;;;9.27;3.47;;;7.60;99.90;;;;;;5060522;28;20199;-54
2022/02/06 05:39:17;;;;;;;5.87;3.27;;;7.60;99.90;;;;;;5056934;28;20238;-56
2022/02/06 05:41:43;;;;;;;7.23;2.80;;;7.60;99.90;;;;;;5059543;28;20199;-56
2022/02/06 05:44:10;;;;;;;4.80;3.70;;;7.60;99.90;;;;;;5061411;28;20921;-55
2022/02/06 05:46:37;;;;;;;6.20;3.73;;;7.60;99.90;;;;;;5059646;28;20545;-55
2022/02/06 05:49:09;;;;;;;4.43;3.67;;;7.60;99.90;;;;;;5059740;28;20539;-55
2022/02/06 05:51:36;;;;;;;7.00;4.23;;;7.60;99.90;;;;;;5056031;28;20637;-54
2022/02/06 05:54:03;;;;;;;5.90;3.90;;;7.60;99.90;;;;;;5060020;28;20199;-54
2022/02/06 05:56:29;;;;;;;6.73;4.13;;;7.70;99.90;;;;;;5057090;28;20219;-55
2022/02/06 05:58:57;;;;;;;5.90;3.90;;;7.60;99.90;;;;;;5057094;28;20310;-55
2022/02/06 06:01:24;;;;;;;6.33;3.60;;;7.60;99.90;;;;;;5052939;28;20271;-54
2022/02/06 06:03:51;;;;;;;9.77;4.23;;;7.60;99.90;;;;;;5056954;28;20203;-56
2022/02/06 06:06:18;;;;;;;5.93;3.13;;;7.70;99.90;;;;;;5058860;28;20648;-55
2022/02/06 06:08:45;;;;;;;4.43;3.50;;;7.70;99.90;;;;;;5059775;28;20231;-55
2022/02/06 06:11:12;;;;;;;7.00;4.10;;;7.60;99.90;;;;;;5052856;28;20349;-55
2022/02/06 06:13:38;;;;;;;6.27;3.60;;;7.60;99.90;;;;;;5067503;28;20370;-55
2022/02/06 06:16:07;;;;;;;4.80;3.80;;;7.60;99.90;;;;;;5072814;28;20722;-56
2022/02/06 06:18:35;;;;;;;5.40;3.40;;;7.60;99.90;;;;;;5077180;28;20214;-56
2022/02/06 06:21:04;;;;;;;6.00;4.10;;;7.60;99.90;;;;;;5073976;28;20205;-55
2022/02/06 06:23:30;;;;;;;8.43;4.00;;;7.60;99.90;;;;;;5077311;28;20202;-55
2022/02/06 06:25:57;;;;;;;8.13;3.27;;;7.60;99.90;;;;;;5072875;28;20344;-55
2022/02/06 06:28:24;;;;;;;6.20;3.13;;;7.60;99.90;;;;;;5069221;28;20266;-56
2022/02/06 06:30:54;;;;;;;8.13;3.70;;;7.60;99.90;;;;;;5074736;28;20244;-54
2022/02/06 06:33:22;;;;;;;6.00;3.40;;;7.60;99.90;;;;;;5076471;28;20206;-54
2022/02/06 06:35:54;;;;;;;5.23;3.20;;;7.70;99.90;;;;;;5065027;28;20206;-54
2022/02/06 06:38:22;;;;;;;8.93;4.20;;;7.70;99.90;;;;;;5077101;28;20203;-55
2022/02/06 06:40:49;;;;;;;5.83;3.63;;;7.70;99.90;;;;;;5044567;28;20633;-55
2022/02/06 06:43:15;;;;;;;5.50;3.73;;;7.70;99.90;;;;;;5063834;28;20277;-54
2022/02/06 06:45:43;;;;;;;7.00;3.60;;;7.80;99.90;;;;;;5072598;28;20306;-54
2022/02/06 06:48:10;;;;;;;7.30;3.50;;;7.80;99.90;;;;;;5074940;28;20695;-55
2022/02/06 06:50:37;;;;;;;8.37;3.73;;;7.80;99.90;;;;;;5072663;28;20684;-53
2022/02/06 06:53:04;;;;;;;6.30;3.27;;;7.80;99.90;;;;;;5075298;28;20238;-54
2022/02/06 06:55:34;;;;;;;5.73;3.90;;;7.80;99.90;;;;;;5076802;28;20710;-55
2022/02/06 06:58:11;;;;;;;7.50;4.23;;;7.80;99.90;;;;;;5074592;28;20282;-54
2022/02/06 07:00:43;;;;;;;6.07;4.17;;;7.90;99.90;;;;;;5064819;28;20215;-55
2022/02/06 07:03:10;;;;;;;5.53;3.80;;;7.90;99.90;;;;;;5074339;28;20190;-55
2022/02/06 07:05:37;;;;;;;6.57;3.97;;;7.90;99.90;;;;;;5071838;28;20683;-55
2022/02/06 07:08:05;;;;;;;6.30;3.83;;;8.00;99.90;;;;;;5075175;28;20486;-55
2022/02/06 07:10:32;;;;;;;6.43;3.63;;;8.00;99.90;;;;;;5072085;28;20216;-54
2022/02/06 07:12:59;;;;;;;6.40;3.97;;;7.90;99.90;;;;;;5073472;28;20671;-55
2022/02/06 07:15:26;;;;;;;6.67;3.97;;;8.00;99.90;;;;;;5073060;28;20238;-54
2022/02/06 07:17:52;;;;;;;6.60;3.97;;;8.00;99.90;;;;;;5071388;28;20535;-55
2022/02/06 07:20:19;;;;;;;7.07;4.53;;;8.00;99.90;;;;;;5071034;28;20199;-54
2022/02/06 07:22:46;;;;;;;5.10;3.90;;;8.00;99.90;;;;;;5066579;28;20264;-55
2022/02/06 07:25:13;;;;;;;8.03;4.47;;;8.00;99.90;;;;;;5068053;28;20234;-54
2022/02/06 07:27:44;;;;;;;8.73;4.37;;;8.00;99.90;;;;;;5058503;28;20655;-55
2022/02/06 07:30:11;;;;;;;8.40;4.50;;;8.00;99.90;;;;;;5075339;28;20290;-54
2022/02/06 07:32:39;;;;;;;15.13;4.33;;;8.00;99.90;;;;;;5070711;28;20282;-54
2022/02/06 07:35:08;;;;;;;6.40;3.87;;;8.00;99.90;;;;;;5076789;28;20308;-55
2022/02/06 07:37:36;;;;;;;10.23;4.40;;;8.10;99.90;;;;;;5068394;28;20219;-54
2022/02/06 07:40:05;;;;;;;5.53;4.27;;;8.10;99.90;;;;;;5053220;28;20198;-55
2022/02/06 07:42:32;;;;;;;5.17;4.33;;;8.10;99.90;;;;;;5076025;28;20223;-55
2022/02/06 07:44:59;;;;;;;7.30;4.83;;;8.10;99.90;;;;;;5074288;28;20191;-55
2022/02/06 07:47:26;;;;;;;5.87;5.00;;;8.10;99.90;;;;;;5058703;28;20219;-54
2022/02/06 07:49:57;;;;;;;7.47;4.33;;;8.10;99.90;;;;;;5074516;28;20204;-55
2022/02/06 07:52:25;;;;;;;9.23;4.57;;;8.10;99.90;;;;;;5067757;28;20199;-55
2022/02/06 07:54:52;;;;;;;5.80;3.90;;;8.10;99.90;;;;;;5055475;28;20223;-54
2022/02/06 07:57:20;;;;;;;7.00;4.30;;;8.10;99.90;;;;;;5070322;28;20235;-54
2022/02/06 07:59:47;;;;;;;5.13;3.67;;;8.10;99.90;;;;;;5065696;28;20629;-54
2022/02/06 08:02:15;;;;;;;5.37;3.40;;;8.10;99.90;;;;;;5071729;28;20654;-55
2022/02/06 08:04:47;;;;;;;4.87;3.63;;;8.10;99.90;;;;;;5053269;28;20561;-55
2022/02/06 08:07:14;;;;;;;6.57;3.70;;;8.10;99.90;;;;;;5069525;28;20624;-56
2022/02/06 08:09:54;;;;;;;4.97;3.40;;;8.10;99.90;;;;;;5053074;28;20301;-55
2022/02/06 08:12:34;;;;;;;3.67;3.23;;;8.10;99.90;;;;;;5073563;28;20210;-54
2022/02/06 08:15:06;;;;;;;5.43;2.97;;;8.10;99.90;;;;;;5068569;28;20452;-54
2022/02/06 08:17:39;;;;;;;5.67;3.40;;;8.10;99.90;;;;;;5073694;28;20901;-55
2022/02/06 08:20:09;;;;;;;5.40;2.73;;;8.20;99.90;;;;;;5069058;28;20237;-55
2022/02/06 08:22:37;;;;;;;6.90;2.70;;;8.20;99.90;;;;;;5070537;28;20669;-55
2022/02/06 08:25:05;;;;;;;3.13;2.83;;;8.10;99.90;;;;;;5065785;28;20341;-54
2022/02/06 08:27:37;;;;;;;6.03;2.77;;;8.20;99.90;;;;;;5072052;28;20593;-54
2022/02/06 08:30:05;;;;;;;4.80;3.03;;;8.20;99.90;;;;;;5063206;28;20240;-55
2022/02/06 08:32:33;;;;;;;4.90;2.67;;;8.10;99.90;;;;;;5074491;28;20715;-55
2022/02/06 08:35:00;;;;;;;3.40;2.97;;;8.10;99.90;;;;;;5070324;28;20195;-55
2022/02/06 08:37:27;;;;;;;6.73;3.03;;;8.10;99.90;;;;;;5070483;28;20255;-56
2022/02/06 08:39:54;;;;;;;5.50;3.07;;;8.10;99.90;;;;;;5065335;28;20857;-55
2022/02/06 08:42:21;;;;;;;6.20;3.37;;;8.20;99.90;;;;;;5066509;28;20207;-56
2022/02/06 08:44:53;;;;;;;7.70;3.43;;;8.20;99.90;;;;;;5055836;28;20382;-55
2022/02/06 08:47:20;;;;;;;3.13;2.50;;;8.10;99.90;;;;;;5071077;28;20575;-57
2022/02/06 08:49:47;;;;;;;5.77;3.83;;;8.10;99.90;;;;;;5064611;28;20244;-54
2022/02/06 08:52:14;;;;;;;6.47;3.37;;;8.10;99.90;;;;;;5071472;28;20958;-55
2022/02/06 08:54:42;;;;;;;6.57;3.10;;;8.20;99.90;;;;;;5056648;28;20743;-55
2022/02/06 08:57:21;;;;;;;3.70;2.80;;;8.20;99.90;;;;;;5069023;28;20218;-55
2022/02/06 08:59:48;;;;;;;3.57;2.63;;;8.20;99.90;;;;;;5065830;28;22211;-55
2022/02/06 09:02:15;;;;;;;6.27;3.10;;;8.20;99.90;;;;;;5076442;28;20573;-55
2022/02/06 09:04:43;;;;;;;7.03;2.90;;;8.20;99.90;;;;;;5066857;28;20272;-56
2022/02/06 09:07:11;;;;;;;3.57;2.10;;;8.20;99.90;;;;;;5075894;28;20226;-55
2022/02/06 09:09:43;;;;;;;3.07;2.67;;;8.20;99.90;;;;;;5068927;28;20305;-55
2022/02/06 09:12:10;;;;;;;4.10;2.80;;;8.20;99.90;;;;;;5074509;28;21757;-55
2022/02/06 09:14:37;;;;;;;5.17;2.37;;;8.20;99.90;;;;;;5062805;28;20682;-55
2022/02/06 09:17:05;;;;;;;4.73;2.20;;;8.20;99.90;;;;;;5073539;28;20245;-55
2022/02/06 09:19:34;;;;;;;4.77;2.50;;;8.20;99.90;;;;;;5072332;28;20654;-56
2022/02/06 09:22:01;;;;;;;4.87;2.47;;;8.30;99.90;;;;;;5071567;28;20204;-55
2022/02/06 09:24:28;;;;;;;4.27;2.30;;;8.30;99.90;;;;;;5068907;28;20227;-55
2022/02/06 09:26:56;;;;;;;4.47;2.53;;;8.30;99.90;;;;;;5065264;28;20223;-54
2022/02/06 09:29:23;;;;;;;5.03;2.23;;;8.30;99.90;;;;;;5070887;28;20261;-55
2022/02/06 09:31:51;;;;;;;7.70;2.33;;;8.30;99.90;;;;;;5065260;28;20934;-55
2022/02/06 09:36:47;;;;;;;3.73;2.27;;;8.30;99.90;;;;;;5076074;28;20644;-54
2022/02/06 09:39:15;;;;;;;3.10;1.53;;;8.30;99.90;;;;;;5071991;28;20215;-55
2022/02/06 09:41:47;;;;;;;3.23;1.67;;;8.30;99.90;;;;;;5072427;28;20198;-54
2022/02/06 09:44:15;;;;;;;3.00;1.60;;;8.30;99.90;;;;;;5076376;28;20202;-53
2022/02/06 09:46:49;;;;;;;3.37;1.80;;;8.30;99.90;;;;;;5073369;28;20216;-56
2022/02/06 09:49:21;;;;;;;3.87;2.03;;;8.30;99.90;;;;;;5073316;28;20686;-55
2022/02/06 09:51:49;;;;;;;2.30;1.40;;;8.30;99.90;;;;;;5074494;28;20199;-55
2022/02/06 09:54:22;;;;;;;3.97;1.63;;;8.30;99.90;;;;;;5073615;28;20231;-55
2022/02/06 09:56:54;;;;;;;1.53;1.30;;;8.40;99.90;;;;;;5074279;28;20687;-55
2022/02/06 09:59:22;;;;;;;1.40;1.30;;;8.40;99.90;;;;;;5060584;28;20261;-54
2022/02/06 10:01:55;;;;;;;2.47;1.30;;;8.40;99.90;;;;;;5074277;28;20717;-55
2022/02/06 10:04:24;;;;;;;4.27;1.37;;;8.40;99.90;;;;;;5075830;28;20247;-56
2022/02/06 10:07:09;;;;;;;2.87;1.37;;;8.40;99.90;;;;;;5074763;28;20281;-55
2022/02/06 10:10:13;;;;;;;1.93;1.77;;;8.40;99.90;;;;;;5072846;28;20316;-55
2022/02/06 10:12:43;;;;;;;3.90;1.87;;;8.40;99.90;;;;;;4965739;28;20218;-54
2022/02/06 10:15:14;;;;;;;2.53;1.30;;;8.40;99.90;;;;;;4963846;28;20269;-53
2022/02/06 10:17:41;;;;;;;3.57;1.30;;;8.40;99.90;;;;;;4965123;28;20749;-54
2022/02/06 10:20:16;;;;;;;3.23;1.13;;;8.40;99.90;;;;;;4964273;28;20237;-53
2022/02/06 10:25:20;;;;;;;1.20;1.07;;;8.40;99.90;;;;;;4961810;28;20198;-54
2022/02/06 10:28:02;;;;;;;2.37;1.63;;;8.40;99.90;;;;;;4964467;28;20710;-55
2022/02/06 10:30:37;;;;;;;2.50;1.10;;;8.40;99.90;;;;;;4969586;28;20277;-55
2022/02/06 10:33:06;;;;;;;3.30;1.50;;;8.40;99.90;;;;;;4973695;28;20248;-54
2022/02/06 10:35:38;;;;;;;2.03;1.20;;;8.40;99.90;;;;;;4966909;28;21063;-55
2022/02/06 10:38:20;;;;;;;2.70;1.60;;;8.40;99.90;;;;;;4971020;28;20278;-54
2022/02/06 10:41:05;;;;;;;1.67;1.30;;;8.40;99.90;;;;;;4964688;28;20437;-55
2022/02/06 10:43:33;;;;;;;4.30;1.10;;;8.40;99.90;;;;;;4964167;28;20296;-55
2022/02/06 10:46:11;;;;;;;3.10;1.20;;;8.40;99.90;;;;;;4987829;28;20297;-55
2022/02/06 10:48:50;;;;;;;2.30;1.40;;;8.40;99.90;;;;;;5077922;28;20253;-55
2022/02/06 10:51:45;;;;;;;2.03;1.40;;;8.40;99.90;;;;;;5071885;28;20272;-55
2022/02/06 10:54:25;;;;;;;1.83;1.37;;;8.40;99.90;;;;;;5065950;28;20203;-55
2022/02/06 10:57:10;;;;;;;1.70;1.23;;;8.40;99.90;;;;;;5068217;28;20202;-56
2022/02/06 10:59:42;;;;;;;1.43;1.00;;;8.40;99.90;;;;;;5068638;28;20214;-56
2022/02/06 11:02:25;;;;;;;3.23;1.30;;;8.40;99.90;;;;;;5071906;28;20244;-59
2022/02/06 11:05:07;;;;;;;1.43;1.20;;;8.40;99.90;;;;;;5055719;28;20646;-55
2022/02/06 11:07:34;;;;;;;3.00;1.20;;;8.40;99.90;;;;;;5070791;28;21422;-55
2022/02/06 11:10:14;;;;;;;1.10;0.90;;;8.40;99.90;;;;;;5064190;28;21012;-54
2022/02/06 11:12:47;;;;;;;1.10;0.90;;;8.40;99.90;;;;;;5073517;28;20203;-57
2022/02/06 11:15:40;;;;;;;1.37;1.10;;;8.40;99.90;;;;;;5055699;28;20238;-63
2022/02/06 11:18:18;;;;;;;1.73;1.13;;;8.40;99.90;;;;;;5055900;28;20624;-55
2022/02/06 11:21:04;;;;;;;6.00;1.30;;;8.40;99.90;;;;;;5055157;28;20202;-56
2022/02/06 11:23:36;;;;;;;1.33;1.17;;;8.40;99.90;;;;;;5058983;28;20199;-57
2022/02/06 11:26:10;;;;;;;2.37;1.27;;;8.40;99.90;;;;;;5057478;28;20288;-58
2022/02/06 11:28:38;;;;;;;1.43;1.27;;;8.40;99.90;;;;;;5057168;28;20713;-59
2022/02/06 11:31:05;;;;;;;1.80;1.30;;;8.40;99.90;;;;;;5051990;28;20208;-55
2022/02/06 11:33:34;;;;;;;1.30;1.00;;;8.40;99.90;;;;;;5044555;28;20826;-62
2022/02/06 11:36:11;;;;;;;2.93;1.40;;;8.50;99.90;;;;;;5063650;28;20335;-62
2022/02/06 11:45:06;;;;;;;1.17;1.07;;;8.70;99.90;;;;;;5051144;28;20196;-63
2022/02/06 11:47:50;;;;;;;3.97;1.40;;;8.80;99.90;;;;;;5036256;28;20876;-57
2022/02/06 11:50:18;;;;;;;3.73;1.00;;;8.70;99.90;;;;;;5055071;28;20219;-56
2022/02/06 11:52:55;;;;;;;1.83;0.60;;;8.50;99.90;;;;;;5054746;28;20624;-57
2022/02/06 11:55:38;;;;;;;4.07;1.07;;;8.20;99.90;;;;;;5052428;28;20204;-57
2022/02/06 11:58:25;;;;;;;3.67;1.17;;;8.10;99.90;;;;;;5053230;28;20272;-57
2022/02/06 12:01:07;;;;;;;8.90;1.30;;;8.00;99.90;;;;;;5055481;28;20309;-56
2022/02/06 12:03:57;;;;;;;7.27;1.30;;;7.90;99.90;;;;;;5057878;28;20599;-57
2022/02/06 12:06:47;;;;;;;3.67;1.30;;;7.90;99.90;;;;;;5054140;28;20745;-55
2022/02/06 12:09:35;;;;;;;4.60;1.57;;;7.80;99.90;;;;;;5040224;28;20833;-56
2022/02/06 12:12:08;;;;;;;4.60;1.60;;;7.80;99.90;;;;;;5035248;28;20195;-57
2022/02/06 12:14:40;;;;;;;3.93;1.20;;;7.70;99.90;;;;;;5051762;28;20248;-57
2022/02/06 12:20:04;;;;;;;3.80;0.97;;;7.80;99.90;;;;;;5053445;28;20199;-57
2022/02/06 12:22:37;;;;;;;3.23;1.20;;;7.70;99.90;;;;;;5052093;28;20199;-57
2022/02/06 12:25:17;;;;;;;5.97;1.47;;;7.70;99.90;;;;;;5052216;28;20294;-56
2022/02/06 12:27:44;;;;;;;3.03;1.43;;;7.70;99.90;;;;;;5039108;28;20303;-56
2022/02/06 12:30:23;;;;;;;2.77;1.00;;;7.70;99.90;;;;;;5049235;28;20215;-56
2022/02/06 12:32:50;;;;;;;4.23;1.70;;;7.70;99.90;;;;;;5045501;28;21694;-56
2022/02/06 12:38:07;;;;;;;3.07;0.73;;;7.70;99.90;;;;;;5045928;28;20559;-56
2022/02/06 12:40:35;;;;;;;1.90;0.83;;;7.60;99.90;;;;;;5047921;28;20619;-56
2022/02/06 12:43:05;;;;;;;2.67;1.07;;;7.60;99.90;;;;;;5049253;28;20207;-56
2022/02/06 12:45:32;;;;;;;4.07;1.10;;;7.70;99.90;;;;;;5030412;28;20211;-55
2022/02/06 12:48:06;;;;;;;5.30;1.10;;;7.80;99.90;;;;;;5051798;28;20215;-57
2022/02/06 12:50:36;;;;;;;4.07;0.80;;;7.80;99.90;;;;;;5049847;28;20224;-57
2022/02/06 12:53:15;;;;;;;2.77;0.80;;;7.80;99.90;;;;;;5034019;28;20233;-57
2022/02/06 12:55:42;;;;;;;5.20;0.80;;;7.70;99.90;;;;;;5051544;28;20215;-56
2022/02/06 12:58:10;;;;;;;4.17;1.00;;;7.80;99.90;;;;;;5051764;28;20253;-56
2022/02/06 13:00:45;;;;;;;2.83;1.07;;;7.70;99.90;;;;;;5057699;28;20200;-57
2022/02/06 13:03:33;;;;;;;4.07;0.87;;;7.80;99.90;;;;;;5037489;28;20195;-56
2022/02/06 13:06:17;;;;;;;4.70;0.97;;;7.80;99.90;;;;;;5056578;28;20203;-56
2022/02/06 13:08:44;;;;;;;10.63;1.53;;;7.60;99.90;;;;;;5049004;28;20238;-57
2022/02/06 13:11:23;;;;;;;1.97;0.90;;;7.70;99.90;;;;;;5047753;28;20207;-55
2022/02/06 13:13:57;;;;;;;5.13;1.00;;;7.70;99.90;;;;;;5047810;28;20310;-56
2022/02/06 13:21:32;;;;;;;8.23;1.30;;;7.80;99.90;;;;;;5074427;28;20668;-57
2022/02/06 13:35:16;;;;;;;5.10;1.23;;;7.80;99.90;;;;;;5069411;28;20252;-57
2022/02/06 13:37:28;;;;;;;4.50;1.50;;;7.80;99.90;;;;;;5060750;28;20623;-56
2022/02/06 13:40:05;;;;;;;4.77;1.03;;;7.80;99.90;;;;;;5072912;28;20352;-58
2022/02/06 13:42:34;;;;;;;2.70;1.27;;;7.90;99.90;;;;;;5070062;28;20239;-57
2022/02/06 13:45:07;;;;;;;5.03;1.00;;;8.00;99.90;;;;;;5071656;28;20210;-57
2022/02/06 13:47:35;;;;;;;7.13;0.80;;;8.10;99.90;;;;;;5077296;28;20304;-57
2022/02/06 13:50:07;;;;;;;6.30;1.50;;;8.10;99.90;;;;;;5073497;28;20666;-57
2022/02/06 13:52:34;;;;;;;7.63;1.17;;;8.10;99.90;;;;;;5071826;28;20347;-57
2022/02/06 13:55:07;;;;;;;3.23;0.90;;;8.10;99.90;;;;;;5067281;28;20707;-57
2022/02/06 13:57:35;;;;;;;7.43;0.90;;;8.20;99.90;;;;;;5074581;28;20209;-59
2022/02/06 14:00:11;;;;;;;5.63;0.90;;;8.30;99.90;;;;;;5071714;28;20290;-58
2022/02/06 14:02:53;;;;;;;3.63;0.90;;;8.30;99.90;;;;;;5072418;28;20227;-58
2022/02/06 14:05:22;;;;;;;6.27;1.13;;;8.30;99.90;;;;;;5066782;28;20289;-58
2022/02/06 14:08:13;;;;;;;5.87;1.00;;;8.20;99.90;;;;;;5064935;28;20229;-57
2022/02/06 14:10:49;;;;;;;1.80;0.70;;;8.30;99.90;;;;;;5071271;28;20314;-58
2022/02/06 14:13:26;;;;;;;5.40;0.87;;;8.30;99.90;;;;;;5069400;28;20226;-57
2022/02/06 14:16:09;;;;;;;4.70;1.00;;;8.30;99.90;;;;;;5061761;28;20310;-56
2022/02/06 14:18:53;;;;;;;2.73;0.63;;;8.40;99.90;;;;;;5061974;28;20317;-59
2022/02/06 14:21:20;;;;;;;3.17;0.80;;;8.40;99.90;;;;;;5060671;28;20237;-58
2022/02/06 14:24:04;;;;;;;3.80;0.87;;;8.50;99.90;;;;;;5063287;28;20296;-57
2022/02/06 14:26:31;;;;;;;5.93;0.80;;;8.50;99.90;;;;;;5051882;28;20244;-57
2022/02/06 14:28:59;;;;;;;3.13;0.83;;;8.60;99.90;;;;;;5036820;28;20976;-58
2022/02/06 14:31:30;;;;;;;9.20;1.07;;;8.60;99.90;;;;;;5056813;28;20212;-57
2022/02/06 14:34:17;;;;;;;2.27;0.67;;;8.50;99.90;;;;;;5059023;28;20313;-56
2022/02/06 14:37:11;;;;;;;3.90;0.70;;;8.60;99.90;;;;;;5061315;28;20198;-58
2022/02/06 14:40:13;;;;;;;5.27;1.00;;;8.50;99.90;;;;;;5086961;28;20195;-57
2022/02/06 14:42:54;;;;;;;4.43;0.70;;;8.60;99.90;;;;;;5089359;28;20259;-57
2022/02/06 14:45:20;;;;;;;4.37;0.60;;;8.60;99.90;;;;;;5087255;28;20730;-56
2022/02/06 14:47:47;;;;;;;4.30;0.90;;;8.60;99.90;;;;;;5083219;28;20206;-58
2022/02/06 14:50:16;;;;;;;4.53;0.90;;;8.60;99.90;;;;;;5080295;28;20650;-57
2022/02/06 14:52:44;;;;;;;1.77;0.80;;;8.60;99.90;;;;;;5084960;28;20224;-56
2022/02/06 14:55:12;;;;;;;5.77;0.73;;;8.60;99.90;;;;;;5082676;28;20286;-58
2022/02/06 14:57:40;;;;;;;5.23;1.00;;;8.50;99.90;;;;;;5082878;28;20832;-58
2022/02/06 15:00:10;;;;;;;5.47;1.50;;;8.40;99.90;;;;;;5081324;28;20206;-58
2022/02/06 15:02:37;;;;;;;6.53;1.10;;;8.40;99.90;;;;;;5083437;28;20229;-57
2022/02/06 15:05:04;;;;;;;2.57;1.23;;;8.10;99.90;;;;;;5079315;28;20254;-55
2022/02/06 15:07:31;;;;;;;1.43;0.80;;;8.10;99.90;;;;;;5081179;28;20202;-57
2022/02/06 15:09:58;;;;;;;1.73;1.10;;;8.20;99.90;;;;;;5081318;28;20321;-59
2022/02/06 15:12:25;;;;;;;7.03;0.70;;;8.20;99.90;;;;;;5086061;28;20265;-57
2022/02/06 15:14:54;;;;;;;5.37;0.93;;;8.30;99.90;;;;;;5083975;28;20374;-58
2022/02/06 15:17:22;;;;;;;4.23;1.23;;;8.30;99.90;;;;;;5084825;28;20290;-58
2022/02/06 15:19:50;;;;;;;4.13;0.83;;;8.40;99.90;;;;;;5070881;28;20235;-57
2022/02/06 15:22:17;;;;;;;3.70;0.90;;;8.40;99.90;;;;;;5072649;28;20688;-56
2022/02/06 15:24:44;;;;;;;3.93;0.90;;;8.30;99.90;;;;;;5068127;28;20802;-57
2022/02/06 15:27:11;;;;;;;8.17;1.53;;;8.30;99.90;;;;;;5071817;28;20240;-56
2022/02/06 15:29:38;;;;;;;2.80;0.90;;;8.40;99.90;;;;;;5036854;28;20215;-56
2022/02/06 15:32:05;;;;;;;1.90;0.73;;;8.40;99.90;;;;;;5069737;28;20713;-57
2022/02/06 15:34:34;;;;;;;5.83;1.03;;;8.40;99.90;;;;;;5050197;28;20955;-56
2022/02/06 15:37:03;;;;;;;1.93;0.67;;;8.30;99.90;;;;;;5066687;28;20315;-58
2022/02/06 15:39:36;;;;;;;10.63;1.17;;;8.30;99.90;;;;;;5028339;28;20233;-55
2022/02/06 15:42:21;;;;;;;4.13;0.90;;;8.40;99.90;;;;;;5051229;28;20230;-55
2022/02/06 15:44:49;;;;;;;2.47;0.70;;;8.40;99.90;;;;;;5070075;28;20206;-58
2022/02/06 15:47:16;;;;;;;2.43;0.77;;;8.40;99.90;;;;;;5075438;28;20200;-57
2022/02/06 15:49:43;;;;;;;5.60;0.90;;;8.30;99.90;;;;;;5074032;28;20618;-56
2022/02/06 15:52:11;;;;;;;3.30;1.20;;;8.30;99.90;;;;;;5065048;28;20650;-56